Sumner, IA

7:23 AM CDT on July 23, 2014 (GMT -0500)
Radio Station N0VTZ; 5 Mi. North of (KIASUMNE2) Elev 1145 ft | 42.91 °N, 92.10 °W | Change Station

Current weather conditions updated 5 seconds ago

Partly Cloudy
Partly Cloudy
62.8 °F
Feels Like 62.8 °F
N
0.0
Wind Variable Wind from NNE
Gusts 0.0 mph

Today is forecast to be Much Cooler than yesterday.

Today
High -- | Low -- °F
--% Chance of Precip.
Yesterday
High -- | Low -- °F
Precip. -- in
5:50 AM 8:38 PM
Waning Crescent, 11% visible
Pressure 30.20 in
Visibility 10.0 miles
Clouds Clear
Dew Point Not available.
Humidity Not available.
Rainfall 0.00 in
Snow Depth Not available.
UV 1 out of 12
Pollen 5.90 out of 12
Air Quality Not available.
Flu Activity Not available.
METAR KOLZ 231215Z AUTO 03007KT 10SM CLR 18/16 A3020 RMK AO2

More Conditions Fewer Conditions

Pressure 30.20 in
Visibility 10.0 miles
Clouds Clear
Dew Point Not available.
Humidity Not available.
Rainfall 0.00 in
Snow Depth Not available.
UV 1 out of 12
Pollen 5.90 out of 12
Air Quality Not available.
Flu Activity Not available.
METAR KOLZ 231215Z AUTO 03007KT 10SM CLR 18/16 A3020 RMK AO2

More Conditions Fewer Conditions

10-Day Weather Forecast

Almanac

Astronomy

Jul. 23, 2014 Rise Set
Actual Time 5:50 AM CDT 8:38 PM CDT
Civil Twilight 5:17 AM CDT 9:11 PM CDT
Nautical Twilight 4:35 AM CDT 9:53 PM CDT
Astronomical Twilight 3:47 AM CDT 10:41 PM CDT
Moon 3:10 AM CDT 6:07 PM CDT
Length of Visible Light 15h 54m
Length of Day
14h 47m
Tomorrow will be 1m 54s shorter.
Waning Crescent, 11% of the Moon is Illuminated
Today
Waning Crescent
Jul 26
New
Aug 3
First Quarter
Aug 10
Full
Aug 17
Last Quarter

Today's Extremes

State Highs State Lows

Community

WunderPhotos

Upload Photos

1,736,579 photos uploaded!

Nearby

Snow Depth

Station Depth Elevation
No new snow has been reported.

Earthquake Activity

City Distance Mag. Time & Date
No recent earthquake activity has been reported nearby.
Minimum magnitude displayed is 2.5.

Coastal Water Temperatures

Place Temperature
No Stations Reporting

Nearby Weather Stations

Station Location Temp. Dew Point Humidity Wind Precip. Elev Updated Type
Radio Station N0VTZ; 5 Mi. North of, Sumner, IA 62.8 °F -40 °F - NNE  at  0.0 mph 0.00 in / hr 1145 ft 7:23 AM CDT Rapid Fire
Hawkeye, IA 62.2 °F 59 °F 89% NE  at  0.0 mph 0.00 in / hr 1161 ft 7:23 AM CDT Rapid Fire
Maplewood Dr, Oelwein, IA 63.7 °F 59 °F 85% NNW  at  0.0 mph 0.00 in / hr 1135 ft 7:23 AM CDT Rapid Fire
Wartburg College Observatory, Waverly, IA 64.1 °F 62 °F 94% North  at  4.0 mph 0.00 in / hr 928 ft 7:23 AM CDT Rapid Fire
Spillville Iowa, Fort Atkinson, IA 63.1 °F 61 °F 93% NNE  at  1.0 mph 0.00 in / hr 1129 ft 7:11 AM CDT Normal

Show More Stations Show Fewer Stations